Time;durP1;ratioP1;P1;durP2;ratioP2;P2;SDS_P1;SDS_P2;PMS_P1;PMS_P2;Temp;Humidity;BMP_temperature;BMP_pressure;BME280_temperature;BME280_humidity;BME280_pressure;Samples;Min_cycle;Max_cycle;Signal;HPM_P1;HPM_P2
2023/12/27 00:01:58;;;;;;;14.77;4.60;;;9.60;43.60;;;7.80;100.00;101149.84;4968819;28;20660;-77
2023/12/27 00:04:25;;;;;;;10.32;4.45;;;9.20;43.00;;;7.89;100.00;101190.91;4969507;28;20145;-78
2023/12/27 00:06:54;;;;;;;11.00;4.60;;;9.60;41.10;;;7.91;100.00;101172.53;4973386;28;20473;-78
2023/12/27 00:09:24;;;;;;;7.65;4.28;;;9.10;42.40;;;7.85;100.00;101169.94;4983528;28;20181;-77
2023/12/27 00:11:51;;;;;;;6.78;4.03;;;10.40;41.90;;;7.25;100.00;101079.97;4952919;28;20481;-77
2023/12/27 00:14:18;;;;;;;11.90;4.45;;;9.10;40.70;;;7.83;100.00;101179.53;4949954;28;20045;-77
2023/12/27 00:16:45;;;;;;;7.63;4.05;;;9.40;41.00;;;7.76;100.00;101166.41;4969341;28;20050;-77
2023/12/27 00:19:12;;;;;;;15.45;4.85;;;9.40;43.90;;;7.73;100.00;101184.75;4981623;28;20057;-77
2023/12/27 00:21:40;;;;;;;8.93;4.60;;;9.90;44.90;;;7.32;100.00;101097.44;4967891;28;20046;-79
2023/12/27 00:24:07;;;;;;;14.10;5.60;;;9.00;44.60;;;7.63;100.00;101147.22;4992214;28;20149;-77
2023/12/27 00:26:34;;;;;;;9.18;4.75;;;9.00;43.30;;;7.18;100.00;101062.50;4977393;28;20144;-78
2023/12/27 00:29:02;;;;;;;12.48;5.00;;;9.00;42.90;;;7.90;100.00;101181.28;4973059;28;20046;-78
2023/12/27 00:31:30;;;;;;;12.00;4.07;;;9.00;41.50;;;7.71;100.00;101152.47;4992080;28;20404;-78
2023/12/27 00:33:57;;;;;;;6.13;3.72;;;9.50;42.60;;;7.14;100.00;101064.25;4959933;28;20050;-78
2023/12/27 00:36:29;;;;;;;17.73;5.55;;;10.10;44.40;;;7.59;100.00;101123.63;4976674;28;20057;-78
2023/12/27 00:38:59;;;;;;;9.52;4.28;;;9.00;45.40;;;7.29;100.00;101073.00;4969977;28;20104;-79
2023/12/27 00:41:28;;;;;;;8.43;4.45;;;9.00;44.60;;;7.23;100.00;101084.31;4958479;28;20872;-78
2023/12/27 00:43:55;;;;;;;10.30;4.47;;;10.40;45.80;;;7.67;100.00;101153.34;4980024;28;20038;-78
2023/12/27 00:46:23;;;;;;;14.50;4.10;;;9.60;44.70;;;7.51;100.00;101128.88;4988203;28;20042;-79
2023/12/27 00:48:51;;;;;;;11.27;4.25;;;9.10;44.20;;;7.38;100.00;101105.28;4956582;28;20672;-79
2023/12/27 00:51:19;;;;;;;9.60;4.60;;;9.00;44.80;;;7.68;100.00;101176.03;4958071;28;20039;-79
2023/12/27 00:53:49;;;;;;;7.63;4.60;;;9.70;46.40;;;7.12;100.00;101075.59;4973519;28;20042;-78
2023/12/27 00:56:16;;;;;;;9.10;4.07;;;9.70;47.00;;;7.21;100.00;101075.59;4967694;28;20485;-78
2023/12/27 00:58:43;;;;;;;7.22;4.10;;;9.30;45.20;;;7.62;100.00;101129.75;5000695;28;20685;-79
2023/12/27 01:01:12;;;;;;;10.57;5.07;;;9.00;45.60;;;7.82;100.00;101175.19;4968605;28;20125;-79
2023/12/27 01:03:41;;;;;;;7.93;4.43;;;9.00;44.00;;;7.07;100.00;101065.13;4970272;28;20046;-78
2023/12/27 01:06:10;;;;;;;8.68;5.05;;;8.80;43.10;;;7.02;100.00;101059.00;4974596;28;20051;-79
2023/12/27 01:08:38;;;;;;;8.68;4.65;;;9.00;44.10;;;7.08;100.00;101062.50;4975630;28;20041;-79
2023/12/27 01:11:06;;;;;;;13.20;4.80;;;8.70;43.60;;;7.71;100.00;101164.66;4976667;28;20042;-79
2023/12/27 01:13:33;;;;;;;10.00;4.43;;;10.20;42.30;;;7.01;100.00;101044.16;4984540;28;20045;-79
2023/12/27 01:16:01;;;;;;;7.57;4.15;;;9.10;42.60;;;7.64;100.00;101153.31;4978811;28;20465;-78
2023/12/27 01:18:28;;;;;;;6.05;4.40;;;9.00;43.40;;;7.51;100.00;101141.97;4968905;28;20042;-79
2023/12/27 01:20:56;;;;;;;11.13;5.03;;;9.80;44.20;;;7.40;100.00;101118.38;4970790;28;20847;-79
2023/12/27 01:23:23;;;;;;;10.00;4.80;;;9.10;42.40;;;7.64;100.00;101145.44;4975421;28;20451;-78
2023/12/27 01:25:50;;;;;;;11.25;5.80;;;9.30;42.60;;;7.83;100.00;101188.25;4961983;28;20065;-78
2023/12/27 01:28:17;;;;;;;9.68;4.75;;;8.60;41.30;;;7.46;100.00;101125.38;4985135;28;20060;-78
2023/12/27 01:30:44;;;;;;;9.45;4.80;;;9.50;41.90;;;7.68;100.00;101191.75;4961701;28;20053;-78
2023/12/27 01:33:13;;;;;;;12.32;4.63;;;9.60;41.90;;;7.84;100.00;101190.00;4960473;28;20049;-78
2023/12/27 01:35:40;;;;;;;11.68;5.50;;;9.10;41.80;;;7.77;100.00;101183.03;4979891;28;20498;-79
2023/12/27 01:38:07;;;;;;;16.48;6.80;;;9.00;43.50;;;7.86;100.00;101208.34;4982574;28;20190;-78
2023/12/27 01:40:34;;;;;;;8.40;5.30;;;9.00;43.20;;;7.78;100.00;101187.41;4968346;28;20525;-79
2023/12/27 01:43:01;;;;;;;9.85;5.15;;;9.00;44.20;;;7.82;100.00;101197.00;4982179;28;20046;-78
2023/12/27 01:45:28;;;;;;;12.32;5.80;;;9.00;44.10;;;7.87;100.00;101197.00;4974875;28;20062;-79
2023/12/27 01:47:57;;;;;;;11.77;5.60;;;9.30;42.10;;;7.26;100.00;101100.06;4986230;28;20042;-79
2023/12/27 01:50:25;;;;;;;13.13;4.97;;;9.40;41.90;;;7.86;100.00;101198.72;4974402;28;20416;-79
2023/12/27 01:52:52;;;;;;;9.65;5.20;;;9.00;40.70;;;7.64;100.00;101153.31;4982838;28;20410;-79
2023/12/27 01:55:20;;;;;;;7.40;5.63;;;9.00;42.70;;;7.23;100.00;101082.59;4970558;28;20137;-77
2023/12/27 01:57:47;;;;;;;11.13;5.22;;;9.00;42.30;;;7.72;100.00;101162.06;4993810;28;20061;-78
2023/12/27 02:00:15;;;;;;;9.23;4.95;;;9.00;42.10;;;7.61;100.00;101150.69;4993643;28;20681;-78
2023/12/27 02:02:42;;;;;;;12.55;7.10;;;9.00;42.50;;;7.80;100.00;101175.16;4982652;28;20073;-78
2023/12/27 02:05:10;;;;;;;9.05;5.68;;;9.00;44.80;;;7.60;100.00;101156.81;4975073;28;20134;-78
2023/12/27 02:07:37;;;;;;;8.07;4.90;;;9.50;45.40;;;7.57;100.00;101159.44;4966128;28;20038;-79
2023/12/27 02:10:06;;;;;;;9.63;5.25;;;10.10;45.40;;;7.58;100.00;101135.88;4981516;28;20464;-78
2023/12/27 02:12:33;;;;;;;7.55;4.43;;;9.00;46.50;;;7.79;100.00;101184.75;4979896;28;20038;-78
2023/12/27 02:15:00;;;;;;;12.60;5.60;;;9.00;48.10;;;7.68;100.00;101154.19;4964177;28;20519;-79
2023/12/27 02:17:28;;;;;;;10.05;5.60;;;9.00;47.60;;;7.72;100.00;101166.41;4982925;28;20045;-79
2023/12/27 02:19:57;;;;;;;9.18;5.53;;;9.00;45.90;;;7.34;100.00;101102.69;4983820;28;20068;-79
2023/12/27 02:22:27;;;;;;;12.55;4.60;;;9.20;44.50;;;7.33;100.00;101108.75;4997888;28;20054;-78
2023/12/27 02:24:55;;;;;;;8.45;4.80;;;9.00;44.20;;;7.82;100.00;101181.28;4982043;28;20050;-79
2023/12/27 02:27:22;;;;;;;11.15;5.15;;;9.00;43.50;;;7.78;100.00;101169.91;4980775;28;20065;-78
2023/12/27 02:29:49;;;;;;;10.50;5.07;;;9.10;42.60;;;7.83;100.00;101174.31;4992401;28;20136;-78
2023/12/27 02:32:17;;;;;;;13.60;4.47;;;9.10;41.90;;;7.62;100.00;101137.63;4964255;28;21115;-78
2023/12/27 02:34:44;;;;;;;8.48;5.20;;;9.00;41.30;;;7.70;100.00;101145.47;4964186;28;20046;-78
2023/12/27 02:37:12;;;;;;;10.98;5.65;;;9.00;42.60;;;7.66;100.00;101151.59;4960272;28;20475;-78
2023/12/27 02:39:39;;;;;;;10.02;5.07;;;9.00;41.80;;;7.71;100.00;101157.69;4987532;28;20604;-79
2023/12/27 02:42:06;;;;;;;10.32;4.70;;;9.10;42.30;;;7.56;100.00;101114.03;4991414;28;20042;-78
2023/12/27 02:44:33;;;;;;;8.45;4.15;;;9.00;42.20;;;7.87;100.00;101160.31;4970330;28;20041;-78
2023/12/27 02:47:03;;;;;;;10.35;4.07;;;9.10;40.40;;;7.78;100.00;101148.09;4984420;28;20142;-78
2023/12/27 02:49:30;;;;;;;8.02;4.38;;;9.00;40.20;;;7.75;100.00;101150.72;4973196;28;20053;-78
2023/12/27 02:51:57;;;;;;;13.43;4.38;;;9.00;41.10;;;7.63;100.00;101123.66;4960160;28;20092;-78
2023/12/27 02:54:24;;;;;;;10.90;5.00;;;9.00;40.50;;;7.04;100.00;101025.88;4965920;28;20046;-78
2023/12/27 02:56:52;;;;;;;14.85;5.70;;;10.00;40.70;;;7.56;100.00;101116.63;4970301;28;20046;-78
2023/12/27 02:59:19;;;;;;;9.77;4.55;;;9.90;40.20;;;7.36;100.00;101067.75;4977981;28;20053;-77
2023/12/27 03:01:46;;;;;;;11.77;5.13;;;9.30;37.80;;;7.75;100.00;101141.09;5002641;28;20128;-78
2023/12/27 03:04:15;;;;;;;8.43;4.63;;;9.20;36.20;;;7.26;100.00;101059.91;4962766;28;20137;-78
2023/12/27 03:06:42;;;;;;;8.05;4.65;;;10.20;35.40;;;7.87;100.00;101155.09;4972741;28;20516;-78
2023/12/27 03:09:10;;;;;;;10.30;5.10;;;9.60;36.00;;;6.90;100.00;100999.66;4956395;28;20058;-79
2023/12/27 03:11:37;;;;;;;7.25;4.47;;;9.00;36.00;;;7.33;100.00;101057.28;4956425;28;20060;-78
2023/12/27 03:14:05;;;;;;;11.27;4.80;;;9.80;36.00;;;7.28;100.00;101053.81;4956030;28;20058;-77
2023/12/27 03:16:32;;;;;;;9.57;4.38;;;9.10;33.40;;;7.86;100.00;101132.38;4952835;28;20073;-79
2023/12/27 03:18:59;;;;;;;7.72;4.25;;;9.30;31.90;;;7.87;100.00;101124.50;4967497;28;20034;-77
2023/12/27 03:21:27;;;;;;;10.50;4.10;;;9.40;30.50;;;7.23;100.00;101030.25;4980956;28;20061;-78
2023/12/27 03:23:54;;;;;;;10.75;4.53;;;9.70;29.00;;;7.45;100.00;101047.69;4978140;28;20108;-79
2023/12/27 03:26:21;;;;;;;12.23;4.30;;;9.80;28.40;;;7.94;100.00;101126.25;4972858;28;20046;-78
2023/12/27 03:28:48;;;;;;;9.57;4.85;;;9.90;28.50;;;7.10;100.00;100978.75;4973647;28;20591;-78
2023/12/27 03:31:15;;;;;;;8.43;4.78;;;9.50;27.20;;;7.87;100.00;101127.13;4981230;28;20480;-78
2023/12/27 03:33:44;;;;;;;6.03;4.00;;;9.70;27.10;;;8.06;100.00;101156.81;4986094;28;20044;-78
2023/12/27 03:36:13;;;;;;;11.10;4.60;;;9.20;25.30;;;7.73;100.00;101087.84;4967149;28;20049;-79
2023/12/27 03:38:40;;;;;;;12.45;5.30;;;9.20;25.20;;;7.90;100.00;101119.28;4961999;28;20507;-77
2023/12/27 03:41:09;;;;;;;12.45;4.75;;;9.20;27.30;;;7.74;100.00;101096.59;4981918;28;20118;-78
2023/12/27 03:43:36;;;;;;;6.57;4.13;;;9.10;29.80;;;7.87;100.00;101126.25;4990178;28;20114;-78
2023/12/27 03:46:03;;;;;;;8.55;4.97;;;9.60;29.90;;;7.78;100.00;101114.03;4993040;28;20148;-78
2023/12/27 03:48:30;;;;;;;9.05;4.18;;;9.10;30.10;;;7.71;100.00;101093.94;4962392;28;20038;-77
2023/12/27 03:50:57;;;;;;;12.48;3.95;;;9.10;31.60;;;7.61;100.00;101073.00;4980126;28;20042;-77
2023/12/27 03:53:25;;;;;;;8.30;4.35;;;9.20;30.10;;;7.66;100.00;101073.88;4985957;28;20394;-78
2023/12/27 03:55:52;;;;;;;8.52;3.90;;;9.20;32.00;;;7.37;100.00;101045.94;4970983;28;20042;-79
2023/12/27 03:58:19;;;;;;;8.50;4.18;;;9.70;33.30;;;7.15;100.00;101000.56;4957446;28;20051;-79
2023/12/27 04:00:46;;;;;;;7.50;4.07;;;10.10;31.60;;;7.68;100.00;101083.47;4954236;28;20046;-79
2023/12/27 04:03:14;;;;;;;8.80;4.45;;;9.10;31.00;;;7.28;100.00;101022.41;4982789;28;20058;-79
2023/12/27 04:05:41;;;;;;;7.55;4.07;;;9.20;31.40;;;7.81;100.00;101095.69;4974685;28;20501;-78
2023/12/27 04:08:10;;;;;;;7.80;4.13;;;9.10;31.70;;;7.82;100.00;101102.69;4966938;28;20049;-77
2023/12/27 04:10:37;;;;;;;11.40;4.05;;;9.10;31.50;;;7.78;100.00;101100.94;4974505;28;20042;-78
2023/12/27 04:13:04;;;;;;;7.15;3.58;;;9.10;31.70;;;7.54;100.00;101054.69;4986904;28;20057;-78
2023/12/27 04:15:31;;;;;;;9.07;3.92;;;9.10;30.00;;;7.91;100.00;101104.41;5001000;28;20038;-77
2023/12/27 04:17:58;;;;;;;7.78;4.10;;;9.20;29.00;;;7.76;100.00;101066.88;4959496;28;20056;-77
2023/12/27 04:20:26;;;;;;;5.60;3.72;;;9.20;27.40;;;7.97;100.00;101103.53;4955276;28;20705;-78
2023/12/27 04:22:53;;;;;;;11.77;3.95;;;9.20;26.20;;;7.93;100.00;101098.31;4976863;28;20096;-79
2023/12/27 04:25:20;;;;;;;9.73;3.60;;;9.80;26.10;;;7.55;100.00;101046.81;4963590;28;20135;-77
2023/12/27 04:27:47;;;;;;;5.45;3.65;;;9.20;25.30;;;7.87;100.00;101106.16;4967915;28;20038;-78
2023/12/27 04:30:15;;;;;;;7.10;3.92;;;9.60;26.50;;;7.97;100.00;101130.63;4959030;28;20096;-78
2023/12/27 04:32:42;;;;;;;7.00;3.22;;;9.20;26.40;;;7.56;100.00;101047.69;4957475;28;20049;-78
2023/12/27 04:35:10;;;;;;;9.13;4.03;;;9.60;26.80;;;7.34;100.00;100993.59;4990518;28;20045;-78
2023/12/27 04:37:39;;;;;;;8.63;4.45;;;9.20;25.00;;;7.35;100.00;100991.84;4977464;28;20121;-78
2023/12/27 04:40:08;;;;;;;10.30;4.57;;;10.10;24.40;;;7.93;100.00;101086.94;5006022;28;20042;-77
2023/12/27 04:42:35;;;;;;;13.90;4.25;;;9.30;22.80;;;7.60;100.00;101021.50;4959360;28;20050;-78
2023/12/27 04:45:02;;;;;;;9.95;4.22;;;9.30;21.30;;;7.79;100.00;101051.16;4987393;28;20434;-78
2023/12/27 04:47:29;;;;;;;9.75;5.53;;;9.30;20.10;;;8.05;100.00;101102.66;4974779;28;20636;-78
2023/12/27 04:49:58;;;;;;;8.23;4.07;;;9.90;20.10;;;7.89;100.00;101069.47;4974701;28;20063;-78
2023/12/27 04:52:26;;;;;;;11.80;4.50;;;9.30;20.90;;;7.93;100.00;101077.34;4971750;28;20104;-79
2023/12/27 04:54:53;;;;;;;10.75;5.72;;;9.30;19.50;;;8.14;100.00;101114.00;4978962;28;20464;-79
2023/12/27 04:57:20;;;;;;;7.53;4.22;;;9.30;18.90;;;8.02;100.00;101094.78;4980764;28;20066;-79
2023/12/27 04:59:47;;;;;;;11.40;4.80;;;9.50;19.80;;;8.14;100.00;101108.75;4974351;28;20046;-79
2023/12/27 05:02:14;;;;;;;10.05;4.40;;;9.30;19.10;;;8.03;100.00;101096.53;4975636;28;20064;-79
2023/12/27 05:04:41;;;;;;;9.07;4.95;;;9.40;18.20;;;8.06;100.00;101100.91;4977275;28;20050;-78
2023/12/27 05:07:09;;;;;;;7.95;5.25;;;9.40;17.70;;;8.13;100.00;101105.25;4990057;28;20046;-79
2023/12/27 05:09:36;;;;;;;8.13;5.35;;;9.50;17.70;;;8.03;100.00;101083.44;4971262;28;20116;-78
2023/12/27 05:12:04;;;;;;;9.85;4.65;;;9.40;17.30;;;7.91;100.00;101060.75;4975793;28;20038;-79
2023/12/27 05:14:31;;;;;;;7.50;4.32;;;9.40;16.90;;;7.98;100.00;101079.06;4976400;28;20054;-78
2023/12/27 05:16:58;;;;;;;13.02;4.65;;;9.50;15.30;;;8.05;100.00;101084.31;4965480;28;20068;-78
2023/12/27 05:19:25;;;;;;;7.47;4.28;;;9.40;14.60;;;8.18;100.00;101102.63;4969445;28;20042;-78
2023/12/27 05:21:52;;;;;;;9.95;4.90;;;9.40;15.00;;;8.07;100.00;101082.53;4977516;28;20490;-77
2023/12/27 05:24:19;;;;;;;11.13;5.30;;;9.40;14.50;;;8.09;100.00;101079.94;4968576;28;20449;-79
2023/12/27 05:26:46;;;;;;;9.90;4.68;;;9.40;13.10;;;8.18;100.00;101085.13;4975291;28;20492;-78
2023/12/27 05:29:13;;;;;;;7.07;5.07;;;9.40;11.30;;;8.06;100.00;101069.47;4991809;28;20057;-78
2023/12/27 05:31:40;;;;;;;9.45;7.30;;;9.40;9.60;;;8.17;100.00;101088.63;4991594;28;20056;-79
2023/12/27 05:34:07;;;;;;;145.10;106.07;;;9.40;8.40;;;8.02;100.00;101071.22;4966680;28;20521;-79
2023/12/27 05:36:37;;;;;;;195.35;138.98;;;9.40;8.20;;;7.88;100.00;101036.28;4991124;28;20104;-78
2023/12/27 05:39:04;;;;;;;123.05;85.25;;;9.40;7.60;;;8.07;100.00;101066.81;4968901;28;20058;-78
2023/12/27 05:41:31;;;;;;;89.72;61.97;;;9.30;6.90;;;8.05;100.00;101049.38;4976389;28;20049;-78
2023/12/27 05:43:59;;;;;;;60.45;41.78;;;9.30;5.10;;;8.11;100.00;101056.31;4991496;28;20131;-77
2023/12/27 05:46:26;;;;;;;43.28;29.30;;;9.40;5.00;;;8.10;100.00;101058.09;4971980;28;20050;-79
2023/12/27 05:48:53;;;;;;;29.77;19.90;;;9.30;3.80;;;7.76;100.00;101006.63;4960339;28;20042;-78
2023/12/27 05:51:20;;;;;;;21.63;15.02;;;9.30;3.20;;;8.09;100.00;101057.19;4973780;28;20045;-77
2023/12/27 05:53:47;;;;;;;11.85;8.65;;;9.30;1.50;;;8.01;100.00;101053.75;4988955;28;20046;-78
2023/12/27 05:56:14;;;;;;;15.57;8.43;;;9.20;1.10;;;8.00;100.00;101052.00;4989244;28;20050;-78
2023/12/27 05:58:41;;;;;;;11.02;6.55;;;9.90;1.20;;;7.73;100.00;101006.63;4977250;28;20041;-78
2023/12/27 06:01:09;;;;;;;14.15;6.38;;;9.20;1.00;;;7.99;100.00;101062.47;4977151;28;20507;-78
2023/12/27 06:03:36;;;;;;;8.27;5.43;;;9.20;1.00;;;7.15;100.00;100940.38;4994988;28;20100;-77
2023/12/27 06:06:04;;;;;;;8.15;5.70;;;9.20;1.30;;;7.93;100.00;101051.13;4970478;28;20042;-79
2023/12/27 06:08:31;;;;;;;8.25;5.82;;;9.10;2.00;;;7.81;100.00;101035.44;4981304;28;20049;-78
2023/12/27 06:11:01;;;;;;;8.63;5.55;;;9.20;1.80;;;7.75;100.00;101032.84;4993608;28;20042;-78
2023/12/27 06:13:28;;;;;;;10.65;5.22;;;9.10;3.10;;;7.73;100.00;101038.06;4977121;28;20046;-79
2023/12/27 06:15:56;;;;;;;10.10;5.45;;;9.10;1.00;;;7.62;100.00;101034.59;4976158;28;20048;-78
2023/12/27 06:18:23;;;;;;;7.28;5.00;;;9.90;2.70;;;7.83;100.00;101074.75;4984822;28;20140;-78
2023/12/27 06:20:51;;;;;;;7.90;5.07;;;9.10;2.90;;;7.80;100.00;101065.13;4970587;28;20064;-77
2023/12/27 06:23:18;;;;;;;5.30;3.72;;;9.10;3.00;;;7.57;100.00;101025.88;4975705;28;20070;-78
2023/12/27 06:25:45;;;;;;;8.52;4.00;;;9.10;3.30;;;7.83;100.00;101066.88;4977273;28;20156;-79
2023/12/27 06:28:12;;;;;;;7.32;4.07;;;9.10;3.60;;;7.84;100.00;101079.97;4975794;28;20045;-78
2023/12/27 06:30:39;;;;;;;7.95;4.35;;;9.10;4.00;;;7.90;100.00;101082.59;4969854;28;20070;-78
2023/12/27 06:33:06;;;;;;;6.35;4.13;;;9.10;1.90;;;7.80;100.00;101076.50;4989604;28;20776;-77
2023/12/27 06:35:33;;;;;;;6.80;3.92;;;9.10;4.30;;;7.85;100.00;101075.59;4977167;28;20045;-77
2023/12/27 06:38:00;;;;;;;5.18;3.28;;;9.90;4.00;;;7.83;100.00;101074.75;4975694;28;20068;-77
2023/12/27 06:40:27;;;;;;;6.53;4.05;;;9.20;3.10;;;7.83;100.00;101080.84;4979474;28;20054;-77
2023/12/27 06:42:54;;;;;;;8.35;3.97;;;9.10;4.60;;;7.72;100.00;101072.09;4977032;28;20570;-78
2023/12/27 06:45:21;;;;;;;5.32;3.72;;;9.70;3.20;;;7.57;100.00;101047.72;4966128;28;20133;-78
2023/12/27 06:47:49;;;;;;;6.25;3.78;;;9.20;3.40;;;7.62;100.00;101047.69;4977288;28;20049;-79
2023/12/27 06:50:16;;;;;;;8.95;3.85;;;10.00;2.80;;;7.86;100.00;101080.81;4978428;28;20121;-78
2023/12/27 06:52:43;;;;;;;8.55;4.05;;;9.20;2.40;;;7.81;100.00;101064.25;4980320;28;20069;-78
2023/12/27 06:55:10;;;;;;;7.15;4.25;;;9.20;3.60;;;7.87;100.00;101072.09;4975330;28;20038;-77
2023/12/27 06:57:39;;;;;;;6.43;4.65;;;9.10;5.00;;;7.90;100.00;101081.72;4983041;28;20042;-78
2023/12/27 07:00:08;;;;;;;10.65;4.90;;;9.10;4.90;;;7.90;100.00;101071.22;4980170;28;20042;-78
2023/12/27 07:02:37;;;;;;;7.88;4.65;;;9.10;4.10;;;7.34;100.00;100975.25;4977931;28;20528;-79
2023/12/27 07:05:05;;;;;;;10.02;5.05;;;9.70;2.50;;;7.33;100.00;100986.59;4994501;28;20042;-78
2023/12/27 07:07:32;;;;;;;9.38;5.35;;;9.20;2.30;;;7.06;100.00;100924.69;4990755;28;20091;-78
2023/12/27 07:09:59;;;;;;;7.53;4.90;;;9.10;2.50;;;7.78;100.00;101041.53;4975779;28;20678;-78
2023/12/27 07:12:27;;;;;;;6.15;4.28;;;9.50;1.90;;;7.46;100.00;100978.75;4948826;28;20432;-79
2023/12/27 07:14:55;;;;;;;6.47;4.72;;;9.10;3.40;;;7.88;100.00;101045.03;4952748;28;20129;-78
2023/12/27 07:17:23;;;;;;;6.05;4.38;;;9.50;3.10;;;7.14;100.00;100935.16;4984226;28;20050;-78
2023/12/27 07:19:51;;;;;;;8.30;5.32;;;9.10;4.60;;;7.58;100.00;101012.78;4990932;28;20091;-78
2023/12/27 07:22:18;;;;;;;8.20;5.20;;;9.40;4.00;;;7.77;100.00;101066.00;4972820;28;20080;-79
2023/12/27 07:24:45;;;;;;;8.77;5.10;;;9.10;3.50;;;7.70;100.00;101027.59;4969210;28;20050;-79
2023/12/27 07:27:12;;;;;;;8.10;5.75;;;9.10;2.20;;;7.63;100.00;101031.09;4993097;28;20052;-78
2023/12/27 07:29:40;;;;;;;5.68;5.15;;;9.10;1.00;;;7.88;100.00;101076.50;4975708;28;20117;-79
2023/12/27 07:32:07;;;;;;;8.02;4.50;;;9.00;1.90;;;7.70;100.00;101063.38;4994908;28;20068;-84
2023/12/27 07:34:34;;;;;;;5.85;4.55;;;9.10;1.40;;;7.36;100.00;101020.63;4994730;28;20128;-82
2023/12/27 07:37:01;;;;;;;10.80;4.63;;;9.00;1.00;;;7.26;100.00;100997.09;4982351;28;20057;-79
2023/12/27 07:39:35;;;;;;;7.63;4.43;;;9.10;2.40;;;7.29;100.00;101004.94;4977469;28;20050;-78
2023/12/27 07:42:03;;;;;;;5.68;3.88;;;9.20;4.50;;;7.07;100.00;100968.31;4999050;28;20056;-81
2023/12/27 07:44:31;;;;;;;5.43;4.57;;;9.10;4.40;;;7.65;100.00;101063.41;4988900;28;20354;-80
2023/12/27 07:46:58;;;;;;;7.20;4.55;;;9.00;3.90;;;7.31;100.00;101003.19;5003747;28;20235;-81
2023/12/27 07:49:25;;;;;;;6.35;4.80;;;9.10;5.00;;;7.34;100.00;101006.69;4989415;28;20034;-80
2023/12/27 07:51:53;;;;;;;8.05;4.70;;;9.10;4.60;;;7.38;100.00;101016.25;5007521;28;20034;-79
2023/12/27 07:54:21;;;;;;;7.03;4.32;;;10.00;5.20;;;7.49;100.00;101038.97;5006993;28;20038;-80
2023/12/27 07:56:48;;;;;;;11.43;6.50;;;9.50;5.20;;;7.91;100.00;101104.41;5003448;28;20054;-79
2023/12/27 07:59:17;;;;;;;10.18;5.40;;;9.50;7.40;;;7.35;100.00;101023.28;5011217;28;20052;-79
2023/12/27 08:01:45;;;;;;;8.25;5.68;;;9.80;6.30;;;7.13;100.00;100973.53;5004564;28;20072;-80
2023/12/27 08:04:13;;;;;;;8.63;5.10;;;9.20;6.00;;;7.58;100.00;101049.44;5004690;28;20516;-79
2023/12/27 08:06:40;;;;;;;8.38;4.65;;;9.90;5.70;;;7.58;100.00;101033.72;5005733;28;20038;-81
2023/12/27 08:09:08;;;;;;;7.50;4.50;;;9.20;6.00;;;7.79;100.00;101071.25;4988564;28;20041;-78
2023/12/27 08:11:35;;;;;;;8.55;4.57;;;9.90;5.80;;;7.82;100.00;101060.75;4993867;28;20045;-80
2023/12/27 08:14:03;;;;;;;6.55;4.32;;;9.20;6.60;;;7.43;100.00;100987.47;4993909;28;20046;-81
2023/12/27 08:34:49;;;;;;;8.23;3.95;;;9.40;9.20;;;8.10;100.00;101016.16;4906224;29;20043;-79
2023/12/27 08:37:17;;;;;;;7.22;4.72;;;9.40;10.40;;;7.49;100.00;100895.84;4867174;29;20076;-79
2023/12/27 08:39:48;;;;;;;7.63;4.40;;;9.40;9.20;;;8.05;100.00;100987.31;4905152;29;20933;-82
2023/12/27 08:42:15;;;;;;;6.40;3.90;;;8.90;7.90;;;7.73;100.00;100903.63;4876988;29;20063;-81
2023/12/27 08:44:43;;;;;;;4.40;3.95;;;9.80;6.80;;;8.11;100.00;100970.72;4861683;29;20072;-82
2023/12/27 08:47:10;;;;;;;6.90;4.00;;;9.50;2.70;;;7.73;100.00;100922.81;4861797;29;20041;-87
2023/12/27 08:49:37;;;;;;;13.68;8.88;;;10.60;2.40;;;8.36;100.00;101007.31;4868914;29;20056;-87
2023/12/27 08:52:05;;;;;;;13.80;7.90;;;9.50;2.30;;;7.90;100.00;100938.47;4896819;29;20045;-82
2023/12/27 08:54:34;;;;;;;12.93;8.80;;;9.50;1.00;;;7.70;100.00;100899.25;4870210;29;20341;-84
2023/12/27 08:57:01;;;;;;;24.10;16.77;;;10.10;1.60;;;7.55;100.00;100891.44;4890079;29;20052;-83
2023/12/27 08:59:28;;;;;;;19.55;14.52;;;10.30;2.60;;;7.52;100.00;100871.38;4878492;29;20052;-84
2023/12/27 09:01:55;;;;;;;11.20;8.23;;;10.10;1.50;;;7.56;100.00;100874.84;4958486;28;20452;-84
2023/12/27 09:04:22;;;;;;;11.40;7.43;;;10.60;1.30;;;8.16;100.00;100989.91;4979324;28;20068;-83
2023/12/27 09:06:53;;;;;;;14.50;8.23;;;10.10;2.00;;;8.22;100.00;100986.38;4985653;28;20057;-82
2023/12/27 09:09:20;;;;;;;12.98;9.15;;;9.40;2.70;;;7.57;100.00;100872.25;4986237;28;20118;-82
2023/12/27 09:11:48;;;;;;;11.68;7.78;;;9.70;3.90;;;7.97;100.00;100927.97;4981804;28;20042;-82
2023/12/27 09:14:15;;;;;;;9.85;5.88;;;9.70;3.60;;;8.21;100.00;100964.56;4979058;28;20512;-80
2023/12/27 09:16:42;;;;;;;10.88;6.03;;;10.60;3.80;;;8.52;100.00;101026.50;4985171;28;20039;-79
2023/12/27 09:19:10;;;;;;;13.93;8.02;;;10.20;3.90;;;8.59;100.00;101035.22;4967483;28;20459;-79
2023/12/27 09:21:45;;;;;;;7.65;6.13;;;9.70;5.30;;;8.57;100.00;101032.56;4989562;28;20080;-77
2023/12/27 09:24:13;;;;;;;12.40;6.38;;;10.00;5.60;;;8.40;100.00;100989.78;4998061;28;20483;-77
2023/12/27 09:26:41;;;;;;;10.05;6.70;;;9.80;5.30;;;8.13;100.00;100952.38;4981597;28;20057;-77
2023/12/27 09:29:10;;;;;;;7.75;5.70;;;9.90;3.50;;;8.06;100.00;100925.31;4965889;28;20065;-77
2023/12/27 09:31:43;;;;;;;8.32;5.95;;;9.90;1.00;;;8.74;100.00;101026.38;4964838;28;20050;-78
2023/12/27 09:34:10;;;;;;;8.48;5.80;;;9.80;1.00;;;8.59;100.00;101002.00;4974805;28;20124;-77
2023/12/27 09:36:41;;;;;;;8.85;5.47;;;9.90;1.00;;;8.43;100.00;100989.78;4977362;28;20038;-77
2023/12/27 09:39:11;;;;;;;8.05;4.38;;;9.90;1.00;;;8.71;100.00;101024.66;4977248;28;20066;-78
2023/12/27 09:41:40;;;;;;;6.63;4.07;;;9.40;1.00;;;8.65;100.00;101001.06;4991144;28;20135;-78
2023/12/27 09:44:09;;;;;;;8.82;5.13;;;10.70;1.00;;;8.56;100.00;100988.00;4978651;28;20054;-78
2023/12/27 09:46:38;;;;;;;9.80;8.45;;;9.90;1.00;;;8.71;100.00;101016.78;4979806;28;20037;-76
2023/12/27 09:49:07;;;;;;;18.55;7.03;;;9.90;1.00;;;8.54;100.00;100982.75;4996520;28;20052;-77
2023/12/27 09:51:38;;;;;;;8.10;4.35;;;10.20;1.00;;;8.74;100.00;100990.53;4980195;28;20049;-77
2023/12/27 09:54:06;;;;;;;11.73;7.30;;;9.90;1.00;;;8.39;100.00;100920.75;4975866;28;20073;-77
2023/12/27 09:56:36;;;;;;;17.35;15.82;;;10.00;1.00;;;8.25;100.00;100878.88;4997148;28;20572;-77
2023/12/27 09:59:07;;;;;;;14.50;10.32;;;10.00;1.00;;;7.92;100.00;100812.69;4982571;28;20088;-76
2023/12/27 10:01:39;;;;;;;12.75;11.43;;;10.00;1.00;;;8.47;100.00;100886.63;4986054;28;20042;-77
2023/12/27 10:04:48;;;;;;;11.30;7.75;;;10.00;1.00;;;8.74;100.00;100955.53;4983547;28;20054;-78
2023/12/27 10:07:17;;;;;;;6.32;4.43;;;10.00;1.00;;;8.47;100.00;100907.59;4986399;28;20056;-77
2023/12/27 10:09:46;;;;;;;5.85;4.97;;;10.30;1.00;;;8.68;100.00;100929.34;4991682;28;20037;-76
2023/12/27 10:12:15;;;;;;;7.22;4.45;;;10.00;1.00;;;8.67;100.00;100918.00;5014922;28;20046;-78
2023/12/27 10:14:45;;;;;;;10.05;5.55;;;10.70;1.00;;;8.78;100.00;100912.66;4988129;28;20677;-78
2023/12/27 10:17:12;;;;;;;8.70;3.63;;;10.10;1.00;;;8.83;100.00;100928.38;4975323;28;20045;-77
2023/12/27 10:19:41;;;;;;;7.28;4.03;;;10.10;1.00;;;9.02;100.00;100944.81;4984699;28;20284;-78
2023/12/27 10:22:10;;;;;;;11.50;7.47;;;10.50;1.00;;;8.99;100.00;100923.84;4972666;28;20054;-78
2023/12/27 10:24:39;;;;;;;11.37;8.70;;;10.20;1.00;;;9.09;100.00;100917.66;4991227;28;20523;-77
2023/12/27 10:27:08;;;;;;;11.48;9.02;;;10.30;1.00;;;9.03;100.00;100909.81;4968093;28;20135;-77
2023/12/27 10:29:36;;;;;;;11.85;9.07;;;10.70;1.00;;;9.17;100.00;100930.72;4991573;28;20098;-78
2023/12/27 10:32:06;;;;;;;8.23;3.90;;;10.40;1.00;;;9.18;100.00;100925.44;4971051;28;20038;-78
2023/12/27 10:34:34;;;;;;;10.95;5.95;;;10.40;99.90;;;9.26;100.00;100930.59;4967944;28;20081;-78
2023/12/27 10:37:04;;;;;;;5.13;3.55;;;11.10;99.90;;;9.12;100.00;100908.84;4969467;28;20057;-77
2023/12/27 10:39:31;;;;;;;;;;;10.40;99.90;;;9.24;100.00;100918.41;4975771;28;20046;-78